Time;durP1;ratioP1;P1;durP2;ratioP2;P2;SDS_P1;SDS_P2;PMS_P1;PMS_P2;Temp;Humidity;BMP_temperature;BMP_pressure;BME280_temperature;BME280_humidity;BME280_pressure;Samples;Min_cycle;Max_cycle;Signal;HPM_P1;HPM_P2
2023/05/04 00:05:34;;;;;;;2.47;1.67;;;17.10;78.90;;;;;;10752743;33;20058;-76
2023/05/04 00:11:39;;;;;;;2.22;1.65;;;17.00;78.90;;;;;;10752004;33;20343;-76
2023/05/04 00:17:46;;;;;;;;;;;16.90;79.00;;;;;;10753232;33;20536;-76
2023/05/04 00:23:48;;;;;;;1.87;1.58;;;16.90;79.00;;;;;;10736776;33;19940;-76
2023/05/04 00:29:50;;;;;;;2.42;1.30;;;16.80;79.10;;;;;;10752689;33;20035;-76
2023/05/04 00:35:52;;;;;;;2.12;1.75;;;16.70;79.10;;;;;;10739086;33;20016;-76
2023/05/04 00:41:57;;;;;;;1.50;1.23;;;16.70;79.10;;;;;;10751780;33;20043;-76
2023/05/04 00:47:59;;;;;;;1.17;1.08;;;16.70;79.00;;;;;;10737346;33;20244;-76
2023/05/04 00:54:01;;;;;;;1.73;1.10;;;16.70;78.80;;;;;;10751094;33;20334;-76
2023/05/04 01:00:04;;;;;;;3.10;1.98;;;16.60;79.00;;;;;;10777889;32;20016;-76
2023/05/04 01:06:18;;;;;;;2.10;1.60;;;16.60;79.80;;;;;;10785090;33;20181;-76
2023/05/04 01:12:26;;;;;;;2.15;1.70;;;16.60;79.70;;;;;;10787697;33;20025;-76
2023/05/04 01:18:28;;;;;;;2.93;2.07;;;16.50;79.70;;;;;;10774940;33;20283;-76
2023/05/04 01:24:31;;;;;;;2.42;2.22;;;16.50;79.60;;;;;;10787357;33;20043;-76
2023/05/04 01:30:43;;;;;;;2.10;1.77;;;16.50;79.50;;;;;;10773094;32;20060;-76
2023/05/04 01:36:46;;;;;;;2.80;1.85;;;16.40;79.50;;;;;;10786392;33;20035;-76
2023/05/04 01:42:48;;;;;;;3.05;1.60;;;16.30;79.40;;;;;;10784258;33;20260;-76
2023/05/04 01:48:50;;;;;;;4.80;1.85;;;16.30;79.40;;;;;;10792866;33;20028;-76
2023/05/04 01:54:52;;;;;;;2.47;1.50;;;16.10;79.70;;;;;;10792497;33;20058;-76
2023/05/04 02:01:00;;;;;;;1.50;1.40;;;16.00;79.70;;;;;;10793452;33;20020;-76
2023/05/04 02:07:02;;;;;;;2.12;1.60;;;16.10;79.50;;;;;;10793099;33;20028;-76
2023/05/04 02:13:04;;;;;;;2.65;1.67;;;16.00;79.60;;;;;;10793032;33;20017;-76
2023/05/04 02:19:06;;;;;;;2.65;1.67;;;16.00;79.60;;;;;;10791651;33;20020;-76
2023/05/04 02:25:30;;;;;;;0.65;0.60;;;15.80;79.80;;;;;;10792694;33;20024;-76
2023/05/04 02:31:33;;;;;;;1.60;1.40;;;15.80;79.90;;;;;;10779033;33;20051;-77
2023/05/04 02:37:34;;;;;;;1.92;1.65;;;15.90;80.00;;;;;;10777759;33;20051;-77
2023/05/04 02:43:38;;;;;;;1.55;1.33;;;15.90;80.10;;;;;;10790930;33;20032;-76
2023/05/04 02:49:40;;;;;;;1.70;1.52;;;15.90;80.00;;;;;;10790696;32;20051;-76
2023/05/04 02:55:42;;;;;;;2.05;1.60;;;15.80;80.00;;;;;;10790390;33;20047;-77
2023/05/04 03:01:44;;;;;;;1.98;1.67;;;15.70;80.10;;;;;;10790486;33;20017;-76
2023/05/04 03:07:46;;;;;;;1.52;1.42;;;15.70;80.10;;;;;;10790334;33;20397;-76
2023/05/04 03:13:48;;;;;;;4.37;1.25;;;15.80;80.10;;;;;;10790189;33;20024;-76
2023/05/04 03:19:50;;;;;;;1.30;1.02;;;15.80;80.50;;;;;;10786485;33;20394;-76
2023/05/04 03:25:52;;;;;;;1.73;1.35;;;15.70;80.40;;;;;;10776697;33;20028;-77
2023/05/04 03:31:57;;;;;;;2.83;1.48;;;15.60;80.50;;;;;;10785619;33;20016;-77
2023/05/04 03:37:59;;;;;;;1.92;1.20;;;15.50;80.40;;;;;;10789416;33;20042;-76
2023/05/04 03:44:01;;;;;;;1.02;0.93;;;15.40;80.60;;;;;;10786143;33;20059;-76
2023/05/04 03:50:04;;;;;;;1.10;0.93;;;15.50;80.60;;;;;;10775742;32;20460;-76
2023/05/04 03:56:08;;;;;;;1.33;1.10;;;15.50;80.40;;;;;;10788862;33;20020;-77
2023/05/04 04:02:11;;;;;;;2.55;1.90;;;15.30;80.50;;;;;;10788695;33;20039;-77
2023/05/04 04:08:13;;;;;;;5.82;2.37;;;15.20;80.70;;;;;;10774558;33;20071;-76
2023/05/04 04:14:16;;;;;;;2.83;2.05;;;15.10;80.80;;;;;;10788333;33;20020;-77
2023/05/04 04:20:33;;;;;;;1.30;1.12;;;15.20;80.70;;;;;;10774971;33;20331;-76
2023/05/04 04:26:36;;;;;;;1.30;1.05;;;15.20;80.60;;;;;;10774397;33;20036;-77
2023/05/04 04:32:45;;;;;;;1.35;0.90;;;15.20;80.60;;;;;;10787750;33;20028;-76
2023/05/04 04:39:05;;;;;;;3.25;2.30;;;15.10;80.60;;;;;;10785317;33;20351;-77
2023/05/04 04:45:10;;;;;;;1.30;1.20;;;15.20;80.80;;;;;;10787521;33;20032;-76
2023/05/04 04:51:14;;;;;;;3.40;1.98;;;15.20;80.70;;;;;;10787436;33;20413;-76
2023/05/04 04:57:19;;;;;;;1.12;0.98;;;15.20;80.80;;;;;;10783457;33;20032;-77
2023/05/04 05:03:23;;;;;;;1.92;1.37;;;15.20;81.00;;;;;;10787250;33;20047;-76
2023/05/04 05:09:25;;;;;;;2.30;1.60;;;15.30;81.00;;;;;;10787026;33;20024;-76
2023/05/04 05:15:27;;;;;;;2.12;1.05;;;15.40;81.00;;;;;;10773848;33;20334;-77
2023/05/04 05:21:29;;;;;;;1.58;1.48;;;15.50;81.00;;;;;;10752877;33;20407;-77
2023/05/04 05:27:33;;;;;;;2.17;1.52;;;15.50;80.80;;;;;;10707093;33;20059;-76
2023/05/04 05:33:36;;;;;;;1.37;1.27;;;15.60;80.90;;;;;;10719973;33;20035;-76
2023/05/04 05:40:12;;;;;;;2.35;1.42;;;15.70;80.90;;;;;;10644839;33;20040;-76
2023/05/04 05:46:42;;;;;;;2.85;1.85;;;15.80;80.80;;;;;;10644768;33;20052;-76
2023/05/04 05:52:44;;;;;;;3.17;1.92;;;15.90;80.80;;;;;;10643859;33;20487;-76
2023/05/04 05:58:49;;;;;;;3.40;2.10;;;16.00;80.70;;;;;;10643368;33;20022;-77
2023/05/04 06:04:52;;;;;;;3.10;1.37;;;16.10;80.50;;;;;;10643648;33;20431;-76
2023/05/04 06:10:55;;;;;;;2.03;1.58;;;16.20;80.50;;;;;;10643087;33;20053;-76
2023/05/04 06:16:57;;;;;;;4.53;2.35;;;16.40;80.50;;;;;;10665447;32;20164;-76
2023/05/04 06:23:02;;;;;;;2.47;1.77;;;16.60;80.40;;;;;;10675623;33;20037;-76
2023/05/04 06:29:04;;;;;;;2.10;1.75;;;16.80;80.20;;;;;;10678301;33;20443;-76
2023/05/04 06:35:18;;;;;;;2.45;1.83;;;16.90;79.80;;;;;;10678661;33;20383;-76
2023/05/04 06:41:21;;;;;;;2.17;1.87;;;17.00;79.50;;;;;;10678825;33;20025;-76
2023/05/04 06:47:26;;;;;;;2.15;1.95;;;17.20;79.20;;;;;;10676068;33;20052;-75
2023/05/04 06:53:28;;;;;;;3.47;2.20;;;17.30;78.90;;;;;;10678265;33;20411;-75
2023/05/04 06:59:38;;;;;;;5.68;4.15;;;17.50;78.30;;;;;;10677409;33;20025;-76
2023/05/04 07:05:44;;;;;;;5.03;3.28;;;17.50;77.80;;;;;;10678140;33;20029;-77
2023/05/04 07:11:47;;;;;;;5.45;3.22;;;17.60;77.20;;;;;;10676233;33;20371;-76
2023/05/04 07:17:49;;;;;;;6.40;4.25;;;17.70;77.00;;;;;;10678428;33;20383;-75
2023/05/04 07:23:51;;;;;;;6.05;4.85;;;17.80;76.50;;;;;;10666209;33;20018;-76
2023/05/04 07:29:56;;;;;;;3.72;2.45;;;17.80;76.20;;;;;;10674852;33;20335;-76
2023/05/04 07:36:00;;;;;;;5.70;3.62;;;17.80;75.90;;;;;;10726897;32;20040;-76
2023/05/04 07:42:04;;;;;;;3.90;2.22;;;18.00;75.60;;;;;;10676334;33;20025;-76
2023/05/04 07:48:06;;;;;;;2.92;2.10;;;18.10;75.10;;;;;;10678034;33;20388;-76
2023/05/04 07:54:09;;;;;;;4.22;2.62;;;18.10;74.50;;;;;;10806902;27;20472;-76
2023/05/04 08:00:13;;;;;;;3.12;2.35;;;18.20;74.00;;;;;;10827414;32;20327;-77
2023/05/04 08:06:16;;;;;;;3.30;2.30;;;18.30;74.00;;;;;;10827788;32;20440;-76
2023/05/04 08:12:25;;;;;;;7.10;3.30;;;18.30;73.60;;;;;;10802294;32;20050;-76
2023/05/04 08:18:32;;;;;;;3.53;2.40;;;18.50;73.40;;;;;;10823324;32;20051;-76
2023/05/04 08:24:34;;;;;;;4.70;2.75;;;18.50;72.80;;;;;;10822391;32;20444;-75
2023/05/04 08:30:37;;;;;;;2.37;1.67;;;18.60;72.50;;;;;;10853551;32;20035;-76
2023/05/04 08:36:45;;;;;;;3.72;2.30;;;18.70;72.10;;;;;;10868217;32;20334;-76
2023/05/04 08:42:49;;;;;;;5.30;2.97;;;18.70;71.70;;;;;;10867445;32;20020;-77
2023/05/04 08:48:51;;;;;;;2.87;2.00;;;18.80;71.90;;;;;;10867214;32;20062;-76
2023/05/04 08:54:55;;;;;;;3.65;2.30;;;18.80;71.80;;;;;;10848831;32;20035;-75
2023/05/04 09:00:59;;;;;;;1.98;1.75;;;19.00;72.40;;;;;;10867768;32;20012;-76
2023/05/04 09:07:02;;;;;;;3.45;2.47;;;19.20;71.40;;;;;;10868107;32;20338;-77
2023/05/04 09:13:04;;;;;;;3.55;2.37;;;19.20;70.90;;;;;;10867455;32;20082;-76
2023/05/04 09:19:32;;;;;;;3.85;2.58;;;19.30;70.50;;;;;;10867138;32;20034;-75
2023/05/04 09:25:48;;;;;;;4.28;2.70;;;19.40;69.30;;;;;;10864758;32;20047;-76
2023/05/04 09:31:51;;;;;;;3.90;2.65;;;19.50;68.80;;;;;;10850992;32;20051;-75
2023/05/04 09:37:53;;;;;;;3.80;2.25;;;19.60;68.30;;;;;;10863482;32;20030;-77
2023/05/04 09:43:56;;;;;;;6.80;3.55;;;19.70;68.40;;;;;;10851851;32;20039;-75
2023/05/04 09:49:58;;;;;;;3.92;2.92;;;19.70;67.90;;;;;;10861552;32;20023;-76
2023/05/04 09:56:22;;;;;;;3.87;1.98;;;19.80;68.20;;;;;;10864011;32;20016;-75
2023/05/04 10:02:25;;;;;;;3.40;2.50;;;20.00;67.20;;;;;;10863707;32;20044;-75
2023/05/04 10:08:27;;;;;;;2.92;2.50;;;20.00;66.90;;;;;;10853109;32;20039;-77
2023/05/04 10:14:34;;;;;;;4.50;2.78;;;20.20;66.20;;;;;;10870734;32;20042;-76
2023/05/04 10:21:04;;;;;;;2.28;2.00;;;20.30;65.20;;;;;;10872845;32;20016;-76
2023/05/04 10:27:44;;;;;;;2.83;2.10;;;20.40;64.70;;;;;;10869447;32;20035;-76
2023/05/04 10:33:46;;;;;;;1.92;1.55;;;20.50;64.80;;;;;;10854381;32;20024;-75
2023/05/04 10:39:53;;;;;;;4.43;2.75;;;20.80;64.80;;;;;;10872238;32;20019;-75
2023/05/04 10:45:56;;;;;;;3.72;2.75;;;21.10;64.50;;;;;;10868953;32;20417;-76
2023/05/04 10:52:16;;;;;;;3.03;2.03;;;21.30;64.10;;;;;;10870851;32;20027;-75
2023/05/04 10:58:27;;;;;;;5.05;2.03;;;21.40;62.90;;;;;;10869264;32;20046;-77
2023/05/04 11:04:30;;;;;;;3.10;1.90;;;21.40;63.20;;;;;;10870406;32;20062;-76
2023/05/04 11:10:32;;;;;;;2.45;1.75;;;21.70;62.90;;;;;;10851302;32;20032;-76
2023/05/04 11:16:36;;;;;;;3.25;2.25;;;21.80;62.80;;;;;;10869482;32;20386;-75
2023/05/04 11:22:41;;;;;;;4.70;2.75;;;21.90;62.30;;;;;;10868977;32;20093;-75
2023/05/04 11:28:49;;;;;;;2.55;1.75;;;22.10;61.50;;;;;;10869301;32;20054;-76
2023/05/04 11:34:52;;;;;;;4.90;3.05;;;22.30;61.70;;;;;;10855402;32;20035;-76
2023/05/04 11:40:55;;;;;;;3.95;1.98;;;22.50;61.00;;;;;;10869167;32;20452;-76
2023/05/04 11:46:57;;;;;;;3.85;2.37;;;22.70;60.60;;;;;;10854714;32;20034;-75
2023/05/04 11:53:07;;;;;;;2.53;1.75;;;22.90;60.20;;;;;;10854141;32;20027;-76
2023/05/04 11:59:24;;;;;;;4.12;2.85;;;23.10;59.60;;;;;;10867638;32;20011;-75
2023/05/04 12:05:35;;;;;;;4.20;2.92;;;23.20;59.50;;;;;;10868990;32;20382;-76
2023/05/04 12:12:03;;;;;;;3.05;2.25;;;23.20;59.70;;;;;;10866699;32;20329;-75
2023/05/04 12:18:28;;;;;;;3.43;2.67;;;23.20;58.70;;;;;;10864017;32;20046;-75
2023/05/04 12:24:31;;;;;;;2.80;1.83;;;23.10;58.80;;;;;;10868142;32;20042;-74
2023/05/04 12:30:34;;;;;;;2.78;2.35;;;22.90;58.50;;;;;;10855022;32;20367;-76
2023/05/04 12:37:21;;;;;;;5.12;3.50;;;22.90;58.40;;;;;;10864420;32;20035;-75
2023/05/04 12:43:26;;;;;;;3.35;2.15;;;23.00;59.10;;;;;;10867472;32;20020;-75
2023/05/04 12:49:37;;;;;;;4.85;3.03;;;22.70;58.50;;;;;;10866933;32;20031;-75
2023/05/04 12:55:39;;;;;;;4.10;2.95;;;22.80;58.50;;;;;;10867211;32;20049;-76
2023/05/04 13:01:42;;;;;;;6.50;3.67;;;22.80;58.60;;;;;;10866313;32;20019;-76
2023/05/04 13:07:44;;;;;;;7.93;4.18;;;22.90;62.10;;;;;;10851933;32;20071;-75
2023/05/04 13:14:06;;;;;;;4.95;2.30;;;22.90;61.00;;;;;;10855606;32;20051;-75
2023/05/04 13:20:09;;;;;;;3.42;2.20;;;23.00;60.40;;;;;;10816534;33;20334;-75
2023/05/04 13:26:11;;;;;;;5.35;3.37;;;23.10;60.40;;;;;;10829556;33;20016;-75
2023/05/04 13:32:14;;;;;;;4.40;3.12;;;23.20;59.80;;;;;;10826227;33;20028;-75
2023/05/04 13:38:18;;;;;;;7.10;2.87;;;23.10;60.30;;;;;;10828668;33;20024;-75
2023/05/04 13:44:21;;;;;;;3.25;2.05;;;22.80;60.20;;;;;;10835390;32;20050;-75
2023/05/04 13:50:23;;;;;;;3.50;2.53;;;22.90;59.70;;;;;;10831621;32;20027;-75
2023/05/04 14:02:57;;;;;;;2.65;1.52;;;23.10;59.50;;;;;;10873415;32;20330;-75
2023/05/04 14:09:04;;;;;;;4.05;2.20;;;23.00;59.40;;;;;;10858136;32;20054;-74
2023/05/04 14:15:09;;;;;;;10.82;3.15;;;23.20;59.40;;;;;;10859077;32;20299;-75
2023/05/04 14:21:15;;;;;;;1.67;1.27;;;23.10;60.10;;;;;;10868166;32;20479;-75
2023/05/04 14:27:26;;;;;;;5.10;2.50;;;23.20;59.40;;;;;;10872740;32;20402;-75
2023/05/04 14:33:28;;;;;;;3.87;2.35;;;23.30;59.50;;;;;;10867444;32;20024;-75
2023/05/04 14:39:30;;;;;;;2.25;1.60;;;23.30;58.80;;;;;;10871670;32;20321;-76
2023/05/04 14:45:36;;;;;;;3.15;1.98;;;23.30;59.10;;;;;;10868372;32;20032;-75
2023/05/04 14:51:40;;;;;;;2.33;1.65;;;23.30;58.70;;;;;;10870729;32;20024;-76
2023/05/04 14:57:44;;;;;;;3.37;2.22;;;23.30;58.60;;;;;;10871343;32;20319;-76
2023/05/04 15:03:47;;;;;;;2.83;1.70;;;23.30;58.50;;;;;;10867403;32;20019;-75
2023/05/04 15:09:50;;;;;;;1.62;1.27;;;23.40;58.60;;;;;;10871834;32;20400;-75
2023/05/04 15:15:53;;;;;;;3.50;2.20;;;23.60;58.20;;;;;;10869837;32;20024;-76
2023/05/04 15:21:57;;;;;;;2.28;1.73;;;23.70;60.40;;;;;;10858126;32;20429;-76
2023/05/04 15:27:59;;;;;;;3.95;1.87;;;23.70;59.10;;;;;;10855634;32;20039;-74
2023/05/04 15:34:01;;;;;;;3.12;1.75;;;23.80;58.40;;;;;;10855841;32;20051;-75
2023/05/04 15:40:07;;;;;;;2.35;1.48;;;23.90;58.00;;;;;;10865355;32;20019;-75
2023/05/04 15:46:09;;;;;;;2.85;1.92;;;24.00;58.30;;;;;;10868085;32;20054;-75
2023/05/04 15:52:12;;;;;;;2.53;1.60;;;23.90;61.30;;;;;;9911007;32;32194176;-76
2023/05/04 15:58:15;;;;;;;3.85;2.03;;;23.90;59.70;;;;;;10893101;32;20104;-75
2023/05/04 16:04:18;;;;;;;2.05;1.62;;;24.00;59.10;;;;;;10868531;32;20020;-76
2023/05/04 16:10:52;;;;;;;1.95;1.55;;;24.20;58.70;;;;;;10868572;32;20050;-75
2023/05/04 16:17:22;;;;;;;3.75;2.25;;;24.30;58.50;;;;;;10789385;33;20350;-76
2023/05/04 16:23:25;;;;;;;2.22;1.30;;;24.20;58.30;;;;;;10790472;33;20051;-75
2023/05/04 16:29:32;;;;;;;1.25;1.05;;;24.20;58.20;;;;;;10790263;33;20429;-75
2023/05/04 16:35:37;;;;;;;1.90;1.40;;;24.10;58.20;;;;;;10788406;33;20055;-76
2023/05/04 16:41:45;;;;;;;3.40;2.28;;;24.10;58.50;;;;;;10790161;33;20050;-76
2023/05/04 16:48:02;;;;;;;4.35;2.00;;;24.00;58.70;;;;;;10789885;33;20437;-76
2023/05/04 16:54:04;;;;;;;13.40;2.15;;;23.80;57.90;;;;;;10810962;32;20066;-77
2023/05/04 17:00:07;;;;;;;2.62;1.70;;;23.60;58.10;;;;;;10824931;32;20028;-77
2023/05/04 17:06:09;;;;;;;3.28;2.03;;;23.50;58.00;;;;;;10824628;32;20106;-77
2023/05/04 17:12:45;;;;;;;3.45;2.08;;;23.40;58.70;;;;;;10847095;32;20031;-77
2023/05/04 17:18:51;;;;;;;1.77;1.52;;;23.20;59.20;;;;;;10721323;33;20113;-76
2023/05/04 17:25:10;;;;;;;3.78;2.42;;;23.10;59.20;;;;;;10723618;33;20067;-76
2023/05/04 17:31:42;;;;;;;2.78;1.50;;;23.10;59.00;;;;;;10722367;33;20461;-77
2023/05/04 17:37:49;;;;;;;;;;;23.00;59.50;;;;;;10720535;33;20048;-77
2023/05/04 17:43:54;;;;;;;2.17;1.45;;;22.90;59.60;;;;;;10720355;33;20324;-77
2023/05/04 17:50:03;;;;;;;3.00;1.65;;;22.80;59.90;;;;;;10722405;33;20059;-77
2023/05/04 17:56:06;;;;;;;8.45;2.10;;;23.00;59.80;;;;;;10853860;32;20051;-77
2023/05/04 18:02:08;;;;;;;2.10;1.55;;;23.10;60.20;;;;;;10873020;32;20059;-77
2023/05/04 18:08:10;;;;;;;3.30;2.12;;;22.80;60.70;;;;;;10870748;32;20050;-77
2023/05/04 18:14:12;;;;;;;3.12;1.80;;;22.50;61.40;;;;;;10869014;32;20023;-76
2023/05/04 18:20:14;;;;;;;3.90;2.20;;;22.20;61.90;;;;;;10878888;32;20330;-77
2023/05/04 18:26:21;;;;;;;4.12;1.80;;;22.00;62.40;;;;;;10863833;32;20062;-77
2023/05/04 18:32:23;;;;;;;2.97;1.77;;;21.90;62.80;;;;;;10864284;32;20397;-77
2023/05/04 18:38:34;;;;;;;3.00;1.40;;;21.80;63.40;;;;;;10865576;32;20027;-77
2023/05/04 18:44:37;;;;;;;11.68;1.87;;;21.60;64.20;;;;;;10854767;32;20034;-77
2023/05/04 18:50:39;;;;;;;4.05;2.60;;;21.60;64.50;;;;;;10880534;32;20019;-77
2023/05/04 18:56:43;;;;;;;3.22;2.12;;;21.50;64.70;;;;;;10899643;32;20030;-77
2023/05/04 19:02:47;;;;;;;3.22;2.53;;;21.40;64.90;;;;;;10856338;32;20035;-77
2023/05/04 19:08:57;;;;;;;3.17;1.77;;;21.30;65.20;;;;;;10871768;32;20019;-77
2023/05/04 19:15:01;;;;;;;4.20;1.90;;;21.30;65.50;;;;;;10869689;32;20023;-77
2023/05/04 19:21:06;;;;;;;4.15;2.17;;;21.20;65.80;;;;;;10870531;32;20059;-77
2023/05/04 19:27:09;;;;;;;1.23;0.98;;;21.10;66.50;;;;;;10867322;32;20324;-77
2023/05/04 19:33:12;;;;;;;2.42;1.50;;;21.00;66.80;;;;;;10869422;32;20003;-77
2023/05/04 19:39:15;;;;;;;3.97;2.58;;;20.90;67.10;;;;;;10868881;32;20425;-77
2023/05/04 19:45:22;;;;;;;3.08;2.05;;;20.80;67.50;;;;;;10870095;32;20047;-77
2023/05/04 19:51:28;;;;;;;3.17;1.95;;;20.80;67.90;;;;;;10869095;32;20023;-77
2023/05/04 19:57:53;;;;;;;2.78;2.00;;;20.80;68.20;;;;;;10865690;32;20015;-77
2023/05/04 20:03:55;;;;;;;3.28;1.80;;;20.70;68.40;;;;;;10868891;32;20034;-77
2023/05/04 20:10:19;;;;;;;3.45;2.62;;;20.60;69.00;;;;;;10868165;32;20027;-76
2023/05/04 20:16:21;;;;;;;5.60;2.97;;;20.60;69.20;;;;;;10898000;32;20020;-77
2023/05/04 20:22:29;;;;;;;4.90;2.87;;;20.50;69.50;;;;;;10900271;32;20043;-76
2023/05/04 20:28:32;;;;;;;3.58;1.90;;;20.50;69.70;;;;;;10889107;32;20050;-76
2023/05/04 20:34:38;;;;;;;3.35;2.10;;;20.40;69.90;;;;;;10905823;32;20047;-76
2023/05/04 20:40:49;;;;;;;5.05;3.08;;;20.30;70.20;;;;;;10905682;32;20019;-76
2023/05/04 20:46:59;;;;;;;4.30;2.65;;;20.30;70.50;;;;;;10905360;32;20015;-76
2023/05/04 20:53:03;;;;;;;4.60;2.58;;;20.20;70.60;;;;;;10904132;32;20337;-76
2023/05/04 20:59:06;;;;;;;4.05;2.70;;;20.20;70.80;;;;;;10903968;32;20023;-76
2023/05/04 21:05:41;;;;;;;3.45;2.28;;;20.20;71.00;;;;;;10903636;32;20256;-76
2023/05/04 21:11:44;;;;;;;8.38;4.25;;;20.10;71.20;;;;;;10903422;32;20077;-76
2023/05/04 21:17:48;;;;;;;5.37;3.85;;;20.00;71.50;;;;;;10891542;32;20429;-76
2023/05/04 21:24:13;;;;;;;4.15;2.92;;;19.90;71.70;;;;;;10904596;32;20061;-76
2023/05/04 21:30:15;;;;;;;5.75;3.33;;;19.90;71.80;;;;;;10901526;32;20431;-76
2023/05/04 21:36:19;;;;;;;5.25;3.05;;;19.80;72.00;;;;;;10903994;32;20439;-76
2023/05/04 21:42:41;;;;;;;5.25;2.60;;;19.80;72.20;;;;;;10889275;32;20032;-76
2023/05/04 21:48:45;;;;;;;5.15;3.22;;;19.80;72.40;;;;;;10904252;32;20046;-76
2023/05/04 21:55:16;;;;;;;5.37;3.10;;;19.80;72.60;;;;;;10903108;32;20409;-76
2023/05/04 22:01:18;;;;;;;3.90;2.22;;;19.70;72.90;;;;;;10903748;32;20019;-76
2023/05/04 22:07:21;;;;;;;4.93;3.22;;;19.70;73.10;;;;;;10910100;32;20035;-76
2023/05/04 22:13:25;;;;;;;3.20;2.22;;;19.60;73.30;;;;;;10895502;32;20054;-76
2023/05/04 22:19:27;;;;;;;3.30;2.37;;;19.50;73.40;;;;;;10910427;32;20416;-76
2023/05/04 22:25:32;;;;;;;5.32;3.15;;;19.40;73.60;;;;;;10910206;32;20053;-76
2023/05/04 22:31:35;;;;;;;5.18;3.03;;;19.40;73.90;;;;;;10908975;32;20024;-76
2023/05/04 22:38:24;;;;;;;5.28;2.95;;;19.40;74.00;;;;;;10909917;32;20412;-76
2023/05/04 22:44:26;;;;;;;4.97;2.87;;;19.40;74.10;;;;;;10895721;32;20058;-76
2023/05/04 22:50:29;;;;;;;9.20;3.65;;;19.30;74.30;;;;;;10894260;32;20023;-76
2023/05/04 22:56:33;;;;;;;4.18;2.62;;;19.20;74.60;;;;;;10909661;32;20073;-76
2023/05/04 23:02:37;;;;;;;4.80;3.00;;;19.10;74.70;;;;;;10909006;32;20092;-76
2023/05/04 23:08:39;;;;;;;4.85;3.53;;;19.00;74.80;;;;;;10908099;32;20054;-76
2023/05/04 23:14:41;;;;;;;5.97;4.15;;;19.00;75.00;;;;;;10893330;32;20062;-76
2023/05/04 23:20:43;;;;;;;5.37;3.15;;;19.00;75.40;;;;;;10907113;32;20019;-77
2023/05/04 23:26:45;;;;;;;4.82;3.12;;;18.90;75.60;;;;;;10893313;32;20287;-76
2023/05/04 23:32:48;;;;;;;5.70;3.60;;;18.90;75.80;;;;;;10907841;32;20019;-77
2023/05/04 23:38:50;;;;;;;4.03;3.12;;;18.80;75.90;;;;;;10907675;32;20050;-76
2023/05/04 23:44:55;;;;;;;5.62;3.47;;;18.70;75.90;;;;;;10907414;32;20037;-77
2023/05/04 23:51:04;;;;;;;4.45;3.17;;;18.70;76.20;;;;;;10851974;27;20327;-76
2023/05/04 23:57:07;;;;;;;4.93;3.10;;;18.70;76.20;;;;;;10716132;33;20368;-77
